RJKI

Kikai Airport

Airport
ICAO code
RJKI
IATA Code
KKX
Summary
ICAO Region
APAC
ICAO Territory
Location

Kikai, Kagoshima Prefecture

Serving
Kikaijima
Elevation
15 ft
Coordinates
28° 19' 11" N , 129° 55' 39" E
KCC
Metar
Observation
RJKI 301100Z AUTO 34015KT 9999 SCT033 BKN037 BKN041 15/08 Q1020
Station
Kikai Island
Date/Time
2023-01-30 11:00:00
Wind direction
340°
Wind speed
15 kts
Lowest cloud amount
scattered clouds
Temperature
15°C
Dew point
8°C
Humidity
62%
QNH
1020 hPa
Weather condition
n/a

Kikai Airport, also known as Kikaijima Airport or Kikaiga Shima Airport, is located in Kikai, a town on Kikaijima (also known as Kikai Island, Kikaishima, Kikaigashima, etc.), one of the Amami Islands in the Kagoshima Prefecture of Japan.

Climatology

Humid Sub-tropical climate (Köppen climate classification Cfa)

Runways

Designator Length Width Surface Rops
7/25 1313 30 ASP No/No

Airport map

Aerial View

SKYbrary Partners:

Safety knowledge contributed by: